Antiville, Indiana
Current Conditions -  °F | °C
As of 3:53 AM on Wednesday 28 Jan 2015 (Local Time) from KMIE Reporting Station
Haze Haze  
Wind Chill: 11°   Ceiling: Unl
Heat Index: 11°   Visibility: 5mi
Dew Point:   Wind: 0mph
Humidity: 84%   Direction: NA
Pressure: 30.28"   Gusts: NA
Location:  40.4312°N, 85.0058°W
Report Text: KMIE 280853Z AUTO 00000KT 5SM BR CLR M12/M14 A3028 RMK AO2 SLP266 I3000 T11171139 51015
Loading
Personal Weather Stations






























Interactive Weather Map New forecast layout! Learn more

10-Day Weather Forecast

Advertisements
Track Severe Weather on mobile